createdAt,value
2018-04-23T00:00:31.177Z,69.61
2018-04-23T00:03:36.437Z,69.46
2018-04-23T00:06:41.733Z,69.25
2018-04-23T00:09:47.007Z,69.18
2018-04-23T00:12:52.026Z,69.14
2018-04-23T00:15:58.215Z,68.72
2018-04-23T00:19:04.413Z,69.24
2018-04-23T00:22:10.609Z,68.75
2018-04-23T00:25:16.890Z,69.10
2018-04-23T00:28:22.678Z,69.30
2018-04-23T00:31:28.902Z,69.24
2018-04-23T00:34:34.226Z,69.62
2018-04-23T00:37:39.524Z,69.21
2018-04-23T00:40:44.785Z,69.28
2018-04-23T00:43:50.984Z,68.57
2018-04-23T00:46:55.967Z,69.21
2018-04-23T00:50:02.175Z,69.11
2018-04-23T00:53:18.619Z,69.15
2018-04-23T00:56:24.337Z,69.12
2018-04-23T00:59:29.650Z,69.08
2018-04-23T01:02:35.732Z,69.36
2018-04-23T01:05:41.404Z,69.41
2018-04-23T01:08:47.270Z,69.07
2018-04-23T01:11:52.606Z,69.24
2018-04-23T01:14:58.701Z,68.84
2018-04-23T01:18:04.598Z,69.13
2018-04-23T01:21:10.690Z,69.11
2018-04-23T01:24:17.625Z,69.02
2018-04-23T01:27:23.500Z,69.13
2018-04-23T01:30:29.612Z,68.75
2018-04-23T01:33:34.887Z,68.72
2018-04-23T01:36:40.902Z,68.60
2018-04-23T01:39:46.897Z,68.42
2018-04-23T01:42:53.087Z,68.47
2018-04-23T01:45:58.964Z,68.58
2018-04-23T01:49:04.753Z,68.73
2018-04-23T01:55:15.311Z,69.01
2018-04-23T01:58:21.481Z,69.39
2018-04-23T02:01:26.749Z,69.84
2018-04-23T02:04:34.105Z,69.52
2018-04-23T02:07:39.020Z,69.43
2018-04-23T02:10:44.651Z,69.38
2018-04-23T02:13:50.669Z,69.32
2018-04-23T02:16:56.484Z,69.40
2018-04-23T02:20:01.669Z,69.58
2018-04-23T02:23:07.476Z,69.59
2018-04-23T02:26:12.836Z,70.28
2018-04-23T02:29:18.964Z,70.04
2018-04-23T02:32:24.567Z,70.37
2018-04-23T02:35:29.776Z,70.89
2018-04-23T02:38:34.757Z,71.02
2018-04-23T02:41:40.736Z,71.73
2018-04-23T02:44:45.937Z,72.05
2018-04-23T02:47:51.667Z,71.53
2018-04-23T02:50:57.407Z,71.55
2018-04-23T02:54:02.756Z,71.49
2018-04-23T02:57:08.920Z,71.44
2018-04-23T03:00:14.129Z,71.52
2018-04-23T03:03:19.348Z,71.52
2018-04-23T03:06:24.651Z,71.75
2018-04-23T03:09:29.510Z,71.63
2018-04-23T03:12:35.144Z,71.90
2018-04-23T03:15:40.111Z,71.76
2018-04-23T03:18:46.212Z,71.52
2018-04-23T03:21:51.832Z,71.75
2018-04-23T03:24:57.855Z,71.68
2018-04-23T03:28:04.022Z,71.98
2018-04-23T03:31:09.608Z,71.63
2018-04-23T03:34:15.731Z,71.82
2018-04-23T03:37:21.892Z,72.02
2018-04-23T03:40:27.084Z,72.16
2018-04-23T03:43:33.195Z,71.91
2018-04-23T03:46:39.712Z,71.95
2018-04-23T03:49:45.308Z,71.97
2018-04-23T03:52:50.518Z,71.97
2018-04-23T03:55:56.539Z,72.62
2018-04-23T03:59:02.569Z,72.52
2018-04-23T04:02:08.471Z,72.67
2018-04-23T04:05:14.348Z,73.33
2018-04-23T04:08:19.536Z,73.29
2018-04-23T04:11:24.836Z,72.78
2018-04-23T04:14:41.572Z,73.85
2018-04-23T04:21:35.440Z,73.53
2018-04-23T04:24:41.301Z,74.06
2018-04-23T04:27:47.477Z,73.74
2018-04-23T04:30:53.259Z,74.12
2018-04-23T04:33:58.191Z,73.70
2018-04-23T04:37:03.381Z,74.46
2018-04-23T04:40:09.498Z,74.99
2018-04-23T04:43:15.148Z,74.24
2018-04-23T04:46:20.994Z,74.69
2018-04-23T04:49:26.648Z,74.00
2018-04-23T04:52:32.675Z,74.33
2018-04-23T04:55:38.788Z,74.65
2018-04-23T04:58:44.874Z,74.86
2018-04-23T05:01:50.804Z,75.12
2018-04-23T05:04:56.840Z,75.18
2018-04-23T05:08:02.996Z,74.92
2018-04-23T05:11:08.925Z,74.53
2018-04-23T05:14:14.942Z,75.42
2018-04-23T05:17:21.080Z,74.80
2018-04-23T05:20:26.344Z,74.68
2018-04-23T05:23:32.067Z,74.86
2018-04-23T05:26:38.034Z,75.70
2018-04-23T05:29:43.889Z,75.18
2018-04-23T05:32:49.992Z,75.32
2018-04-23T05:35:56.032Z,75.86
2018-04-23T05:39:02.083Z,75.95
2018-04-23T05:42:06.809Z,75.95
2018-04-23T05:45:12.473Z,75.88
2018-04-23T05:48:18.506Z,75.75
2018-04-23T05:51:24.631Z,75.62
2018-04-23T05:54:30.685Z,76.45
2018-04-23T05:57:35.899Z,76.66
2018-04-23T06:00:41.133Z,75.92
2018-04-23T06:03:47.256Z,75.63
2018-04-23T06:06:52.883Z,76.20
2018-04-23T06:09:59.029Z,76.39
2018-04-23T06:13:04.944Z,76.41
2018-04-23T06:16:10.760Z,75.93
2018-04-23T06:19:16.387Z,76.05
2018-04-23T06:22:21.634Z,76.32
2018-04-23T06:25:26.897Z,76.34
2018-04-23T06:28:32.283Z,76.73
2018-04-23T06:31:37.509Z,76.97
2018-04-23T06:34:42.721Z,76.92
2018-04-23T06:37:48.940Z,76.87
2018-04-23T06:40:54.777Z,76.68
2018-04-23T06:44:00.804Z,76.42
2018-04-23T06:47:06.859Z,76.76
2018-04-23T06:50:12.912Z,77.40
2018-04-23T06:53:18.303Z,76.62
2018-04-23T06:56:23.888Z,76.69
2018-04-23T06:59:28.593Z,76.09
2018-04-23T07:02:34.433Z,76.18
2018-04-23T07:05:40.405Z,76.42
2018-04-23T07:08:46.249Z,76.27
2018-04-23T07:11:52.389Z,75.92
2018-04-23T07:14:58.521Z,76.22
2018-04-23T07:18:03.748Z,76.40
2018-04-23T07:21:09.380Z,76.31
2018-04-23T07:24:14.601Z,76.06
2018-04-23T07:27:20.247Z,76.15
2018-04-23T07:30:26.329Z,75.84
2018-04-23T07:33:32.377Z,76.03
2018-04-23T07:36:38.300Z,76.64
2018-04-23T07:39:44.216Z,76.30
2018-04-23T07:42:50.132Z,76.41
2018-04-23T07:45:56.205Z,76.50
2018-04-23T07:49:02.145Z,76.33
2018-04-23T07:52:07.906Z,76.55
2018-04-23T07:55:14.048Z,76.53
2018-04-23T07:58:20.364Z,76.29
2018-04-23T08:01:26.405Z,76.04
2018-04-23T08:04:32.731Z,76.52
2018-04-23T08:07:38.552Z,76.07
2018-04-23T08:10:44.561Z,76.03
2018-04-23T08:13:49.775Z,76.10
2018-04-23T08:16:55.000Z,75.96
2018-04-23T08:20:00.273Z,76.18
2018-04-23T08:23:06.024Z,76.16
2018-04-23T08:26:12.172Z,76.19
2018-04-23T08:29:18.305Z,76.12
2018-04-23T08:32:24.332Z,76.11
2018-04-23T08:35:31.200Z,75.84
2018-04-23T08:38:37.013Z,76.10
2018-04-23T08:41:43.027Z,76.15
2018-04-23T08:44:48.881Z,76.14
2018-04-23T08:47:54.361Z,76.23
2018-04-23T08:51:00.489Z,76.01
2018-04-23T08:54:05.904Z,75.70
2018-04-23T08:57:11.144Z,75.95
2018-04-23T09:00:17.281Z,75.93
2018-04-23T09:03:23.444Z,75.84
2018-04-23T09:06:28.312Z,76.00
2018-04-23T09:09:34.140Z,75.90
2018-04-23T09:12:39.368Z,75.99
2018-04-23T09:15:44.580Z,75.86
2018-04-23T09:18:50.321Z,75.95
2018-04-23T09:21:56.120Z,76.02
2018-04-23T09:25:01.510Z,76.15
2018-04-23T09:28:06.533Z,76.12
2018-04-23T09:31:12.505Z,76.10
2018-04-23T09:34:18.867Z,76.03
2018-04-23T09:37:25.423Z,76.15
2018-04-23T09:40:30.630Z,76.28
2018-04-23T09:43:36.768Z,76.16
2018-04-23T09:46:41.992Z,76.41
2018-04-23T09:49:47.207Z,76.65
2018-04-23T09:52:52.431Z,76.70
2018-04-23T09:55:57.632Z,76.66
2018-04-23T09:59:03.580Z,76.65
2018-04-23T10:02:09.092Z,76.41
2018-04-23T10:05:15.045Z,76.35
2018-04-23T10:08:20.458Z,76.21
2018-04-23T10:11:25.672Z,76.00
2018-04-23T10:14:30.888Z,76.20
2018-04-23T10:17:36.103Z,76.05
2018-04-23T10:20:41.319Z,75.94
2018-04-23T10:23:47.474Z,75.73
2018-04-23T10:26:52.692Z,75.69
2018-04-23T10:29:58.617Z,75.82
2018-04-23T10:33:03.834Z,75.57
2018-04-23T10:36:09.054Z,75.58
2018-04-23T10:39:13.998Z,75.64
2018-04-23T10:42:19.377Z,75.42
2018-04-23T10:45:26.131Z,75.40
2018-04-23T10:48:32.387Z,75.36
2018-04-23T10:51:38.017Z,75.14
2018-04-23T10:54:44.055Z,75.02
2018-04-23T10:57:49.869Z,74.75
2018-04-23T11:00:55.076Z,74.21
2018-04-23T11:04:00.470Z,73.94
2018-04-23T11:07:05.401Z,73.80
2018-04-23T11:10:10.605Z,73.08
2018-04-23T11:13:15.794Z,73.07
2018-04-23T11:16:21.028Z,73.01
2018-04-23T11:19:27.126Z,72.12
2018-04-23T11:22:33.143Z,71.83
2018-04-23T11:25:39.144Z,71.63
2018-04-23T11:28:45.385Z,71.35
2018-04-23T11:31:52.321Z,71.23
2018-04-23T11:34:58.123Z,71.27
2018-04-23T11:38:04.060Z,70.54
2018-04-23T11:41:09.815Z,70.68
2018-04-23T11:44:15.004Z,70.67
2018-04-23T11:47:20.620Z,70.87
2018-04-23T11:50:26.768Z,70.96
2018-04-23T11:53:32.952Z,70.32
2018-04-23T11:56:38.972Z,69.72
2018-04-23T11:59:44.884Z,69.65
2018-04-23T12:02:50.656Z,70.04
2018-04-23T12:05:55.858Z,70.27
2018-04-23T12:09:01.074Z,70.03
2018-04-23T12:12:06.915Z,69.74
2018-04-23T12:15:12.112Z,69.43
2018-04-23T12:18:17.378Z,69.23
2018-04-23T12:21:23.317Z,69.25
2018-04-23T12:24:29.240Z,69.12
2018-04-23T12:27:35.375Z,69.44
2018-04-23T12:30:41.061Z,68.60
2018-04-23T12:33:46.936Z,67.73
2018-04-23T12:36:52.213Z,67.45
2018-04-23T12:39:57.829Z,67.27
2018-04-23T12:43:03.872Z,68.02
2018-04-23T12:46:09.951Z,65.92
2018-04-23T12:49:16.289Z,66.00
2018-04-23T12:52:22.105Z,65.39
2018-04-23T12:55:28.228Z,63.94
2018-04-23T12:58:33.604Z,64.67
2018-04-23T13:01:38.813Z,64.74
2018-04-23T13:04:44.014Z,64.16
2018-04-23T13:07:49.251Z,64.74
2018-04-23T13:10:54.477Z,64.06
2018-04-23T13:13:59.680Z,64.44
2018-04-23T13:17:05.792Z,64.66
2018-04-23T13:20:11.805Z,64.48
2018-04-23T13:23:17.812Z,65.02
2018-04-23T13:26:23.841Z,64.89
2018-04-23T13:29:29.963Z,65.14
2018-04-23T13:32:35.980Z,63.87
2018-04-23T13:35:42.020Z,63.64
2018-04-23T13:38:47.952Z,65.09
2018-04-23T13:41:53.907Z,64.57
2018-04-23T13:44:59.617Z,64.92
2018-04-23T13:48:05.768Z,63.97
2018-04-23T13:51:11.687Z,65.10
2018-04-23T13:54:17.713Z,64.89
2018-04-23T13:57:23.695Z,65.56
2018-04-23T14:00:29.732Z,65.06
2018-04-23T14:03:35.869Z,65.50
2018-04-23T14:06:41.893Z,65.45
2018-04-23T14:09:48.576Z,65.10
2018-04-23T14:12:55.117Z,64.91
2018-04-23T14:16:00.601Z,65.11
2018-04-23T14:19:06.209Z,64.80
2018-04-23T14:22:12.376Z,65.27
2018-04-23T14:25:17.572Z,65.40
2018-04-23T14:28:23.499Z,65.43
2018-04-23T14:31:28.705Z,65.48
2018-04-23T14:34:34.829Z,65.61
2018-04-23T14:37:40.518Z,65.72
2018-04-23T14:40:47.659Z,65.44
2018-04-23T14:43:53.143Z,65.76
2018-04-23T14:46:59.260Z,64.79
2018-04-23T14:50:04.524Z,64.97
2018-04-23T14:53:09.803Z,64.94
2018-04-23T14:56:15.156Z,64.83
2018-04-23T14:59:20.906Z,65.40
2018-04-23T15:02:27.106Z,65.09
2018-04-23T15:05:32.319Z,65.49
2018-04-23T15:08:37.507Z,65.64
2018-04-23T15:11:42.903Z,65.21
2018-04-23T15:14:48.551Z,65.56
2018-04-23T15:17:53.768Z,65.30
2018-04-23T15:21:00.108Z,65.22
2018-04-23T15:24:05.443Z,65.23
2018-04-23T15:27:10.604Z,65.01
2018-04-23T15:30:15.816Z,64.73
2018-04-23T15:33:21.969Z,65.10
2018-04-23T15:36:27.688Z,65.21
2018-04-23T15:39:33.714Z,65.22
2018-04-23T15:42:39.721Z,65.29
2018-04-23T15:45:45.557Z,64.93
2018-04-23T15:48:50.484Z,64.69
2018-04-23T15:51:55.677Z,65.01
2018-04-23T15:55:02.813Z,64.62
2018-04-23T15:58:08.627Z,64.72
2018-04-23T16:01:13.874Z,64.29
2018-04-23T16:04:19.116Z,64.45
2018-04-23T16:07:24.381Z,64.19
2018-04-23T16:10:29.608Z,64.58
2018-04-23T16:13:36.608Z,64.29
2018-04-23T16:16:41.954Z,64.51
2018-04-23T16:19:47.148Z,64.65
2018-04-23T16:22:53.265Z,64.13
2018-04-23T16:25:58.987Z,63.99
2018-04-23T16:29:05.316Z,63.61
2018-04-23T16:32:11.445Z,63.97
2018-04-23T16:35:16.884Z,63.52
2018-04-23T16:38:22.085Z,62.97
2018-04-23T16:41:28.204Z,63.23
2018-04-23T16:44:33.414Z,62.58
2018-04-23T16:47:38.640Z,62.68
2018-04-23T16:50:43.876Z,62.38
2018-04-23T16:53:49.106Z,62.05
2018-04-23T16:56:55.336Z,61.12
2018-04-23T17:00:01.307Z,61.55
2018-04-23T17:03:06.492Z,60.90
2018-04-23T17:06:11.772Z,60.92
2018-04-23T17:09:17.914Z,60.88
2018-04-23T17:12:23.204Z,60.70
2018-04-23T17:15:29.258Z,60.56
2018-04-23T17:18:35.455Z,61.21
2018-04-23T17:21:41.668Z,61.87
2018-04-23T17:24:46.576Z,61.46
2018-04-23T17:27:51.788Z,60.86
2018-04-23T17:30:57.516Z,60.34
2018-04-23T17:34:04.369Z,61.12
2018-04-23T17:37:09.272Z,60.35
2018-04-23T17:40:15.662Z,60.99
2018-04-23T17:43:21.084Z,60.58
2018-04-23T17:46:26.041Z,60.70
2018-04-23T17:49:32.152Z,60.33
2018-04-23T17:52:37.786Z,61.10
2018-04-23T17:55:42.755Z,59.57
2018-04-23T17:58:47.988Z,60.71
2018-04-23T18:01:53.359Z,60.32
2018-04-23T18:04:58.316Z,60.73
2018-04-23T18:08:04.280Z,61.34
2018-04-23T18:11:10.119Z,61.23
2018-04-23T18:14:15.957Z,61.68
2018-04-23T18:17:20.992Z,61.75
2018-04-23T18:20:25.932Z,62.25
2018-04-23T18:23:31.476Z,62.03
2018-04-23T18:26:37.455Z,62.24
2018-04-23T18:29:42.402Z,62.59
2018-04-23T18:32:47.293Z,62.05
2018-04-23T18:35:52.885Z,62.28
2018-04-23T18:38:57.808Z,62.73
2018-04-23T18:42:02.747Z,61.84
2018-04-23T18:45:08.178Z,62.56
2018-04-23T18:48:14.052Z,62.46
2018-04-23T18:51:19.027Z,62.13
2018-04-23T18:54:23.955Z,62.34
2018-04-23T18:57:29.960Z,63.35
2018-04-23T19:00:35.318Z,62.79
2018-04-23T19:03:41.157Z,63.18
2018-04-23T19:06:46.081Z,63.47
2018-04-23T19:09:51.670Z,63.26
2018-04-23T19:12:56.876Z,62.65
2018-04-23T19:16:02.837Z,63.90
2018-04-23T19:19:09.004Z,63.57
2018-04-23T19:22:14.481Z,63.61
2018-04-23T19:25:21.160Z,63.85
2018-04-23T19:28:27.024Z,63.95
2018-04-23T19:31:32.002Z,64.11
2018-04-23T19:34:37.857Z,64.21
2018-04-23T19:37:43.256Z,64.21
2018-04-23T19:40:49.360Z,64.36
2018-04-23T19:43:55.016Z,64.26
2018-04-23T19:47:00.923Z,64.68
2018-04-23T19:50:05.273Z,65.22
2018-04-23T19:53:11.179Z,65.04
2018-04-23T19:56:17.287Z,65.11
2018-04-23T19:59:22.212Z,65.16
2018-04-23T20:02:27.653Z,65.10
2018-04-23T20:05:32.560Z,65.77
2018-04-23T20:08:37.964Z,65.72
2018-04-23T20:11:43.771Z,66.34
2018-04-23T20:14:49.128Z,66.27
2018-04-23T20:17:53.721Z,66.51
2018-04-23T20:20:59.398Z,67.10
2018-04-23T20:24:05.301Z,67.04
2018-04-23T20:27:10.898Z,67.24
2018-04-23T20:30:16.735Z,67.27
2018-04-23T20:33:22.623Z,67.26
2018-04-23T20:36:28.606Z,67.61
2018-04-23T20:39:33.203Z,67.81
2018-04-23T20:42:38.628Z,67.98
2018-04-23T20:45:44.077Z,68.08
2018-04-23T20:48:49.000Z,67.98
2018-04-23T20:51:54.192Z,68.40
2018-04-23T20:54:59.559Z,68.17
2018-04-23T20:58:04.425Z,68.25
2018-04-23T21:01:09.221Z,68.35
2018-04-23T21:04:15.234Z,68.10
2018-04-23T21:07:20.857Z,68.20
2018-04-23T21:10:27.051Z,68.34
2018-04-23T21:13:32.584Z,68.56
2018-04-23T21:16:37.788Z,68.34
2018-04-23T21:19:44.155Z,68.32
2018-04-23T21:22:49.480Z,68.78
2018-04-23T21:25:55.440Z,68.83
2018-04-23T21:29:01.036Z,69.00
2018-04-23T21:32:06.951Z,68.95
2018-04-23T21:35:13.716Z,68.89
2018-04-23T21:38:19.803Z,69.40
2018-04-23T21:41:24.990Z,68.93
2018-04-23T21:44:30.392Z,69.05
2018-04-23T21:47:37.542Z,68.99
2018-04-23T21:50:42.489Z,68.89
2018-04-23T21:53:47.420Z,68.90
2018-04-23T21:56:52.996Z,69.50
2018-04-23T21:59:57.907Z,69.48
2018-04-23T22:03:03.356Z,69.84
2018-04-23T22:06:09.192Z,69.40
2018-04-23T22:09:15.084Z,69.66
2018-04-23T22:12:20.623Z,69.61
2018-04-23T22:15:25.536Z,69.65
2018-04-23T22:18:30.941Z,70.05
2018-04-23T22:21:36.547Z,69.74
2018-04-23T22:24:41.456Z,69.68
2018-04-23T22:27:46.381Z,69.77
2018-04-23T22:30:51.804Z,69.86
2018-04-23T22:33:56.752Z,69.79
2018-04-23T22:37:02.644Z,69.72
2018-04-23T22:40:07.627Z,69.92
2018-04-23T22:43:12.580Z,69.87
2018-04-23T22:46:17.762Z,70.07
2018-04-23T22:49:22.680Z,69.95
2018-04-23T22:52:27.876Z,70.05
2018-04-23T22:55:32.822Z,70.12
2018-04-23T22:58:37.740Z,70.15
2018-04-23T23:01:42.853Z,70.21
2018-04-23T23:04:48.754Z,70.34
2018-04-23T23:07:54.583Z,70.37
2018-04-23T23:10:59.772Z,70.40
2018-04-23T23:14:05.215Z,70.37
2018-04-23T23:17:10.844Z,70.26
2018-04-23T23:20:16.875Z,70.41
2018-04-23T23:23:22.716Z,70.34
2018-04-23T23:26:28.326Z,70.23
2018-04-23T23:29:33.521Z,70.39
2018-04-23T23:32:38.744Z,70.40
2018-04-23T23:35:45.536Z,70.53
2018-04-23T23:38:50.905Z,70.31
2018-04-23T23:41:57.008Z,70.32
2018-04-23T23:45:02.653Z,70.33
2018-04-23T23:48:08.540Z,70.20
2018-04-23T23:51:13.745Z,70.11
2018-04-23T23:54:18.993Z,70.12
2018-04-23T23:57:24.173Z,70.32
